Time;durP1;ratioP1;P1;durP2;ratioP2;P2;SDS_P1;SDS_P2;PMS_P1;PMS_P2;Temp;Humidity;BMP_temperature;BMP_pressure;BME280_temperature;BME280_humidity;BME280_pressure;Samples;Min_cycle;Max_cycle;Signal;HPM_P1;HPM_P2
2023/04/24 00:02:04;;;;;;;1.20;0.90;;;;;;;10.70;100.00;95510.88;4993032;28;105503;-61
2023/04/24 00:04:31;;;;;;;0.70;0.70;;;;;;;10.70;100.00;95500.25;4990123;28;101799;-61
2023/04/24 00:06:59;;;;;;;0.80;0.80;;;;;;;10.62;100.00;95502.63;4990181;28;107562;-61
2023/04/24 00:09:27;;;;;;;1.00;0.90;;;;;;;10.64;100.00;95495.97;4990821;28;101959;-61
2023/04/24 00:11:55;;;;;;;1.80;0.97;;;;;;;10.63;100.00;95501.59;4990069;28;102079;-61
2023/04/24 00:14:23;;;;;;;0.70;0.70;;;;;;;10.65;100.00;95496.78;4990245;28;104907;-61
2023/04/24 00:16:50;;;;;;;0.80;0.50;;;;;;;10.60;100.00;95494.97;4989363;28;105337;-61
2023/04/24 00:19:21;;;;;;;0.60;0.60;;;;;;;10.58;100.00;95496.28;4989987;28;101908;-61
2023/04/24 00:21:49;;;;;;;0.70;0.70;;;;;;;10.55;100.00;95489.66;4989953;28;104747;-61
2023/04/24 00:24:16;;;;;;;2.10;0.70;;;;;;;10.52;100.00;95481.44;4992062;28;105524;-61
2023/04/24 00:26:43;;;;;;;0.90;0.90;;;;;;;10.54;100.00;95487.25;4989775;28;105080;-61
2023/04/24 00:29:11;;;;;;;0.77;0.70;;;;;;;10.51;100.00;95480.63;4990536;28;102948;-61
2023/04/24 00:31:38;;;;;;;0.60;0.60;;;;;;;10.46;100.00;95477.97;4989820;28;101864;-61
2023/04/24 00:34:06;;;;;;;0.87;0.63;;;;;;;10.44;100.00;95474.81;4989867;28;105307;-61
2023/04/24 00:36:33;;;;;;;0.50;0.50;;;;;;;10.44;100.00;95463.38;4989154;28;103802;-61
2023/04/24 00:39:00;;;;;;;0.60;0.60;;;;;;;10.44;100.00;95463.38;4989582;28;101980;-61
2023/04/24 00:41:27;;;;;;;0.50;0.50;;;;;;;10.45;100.00;95456.97;4989660;28;103692;-61
2023/04/24 00:43:54;;;;;;;0.70;0.70;;;;;;;10.46;100.00;95456.72;4988634;28;105164;-61
2023/04/24 00:46:23;;;;;;;1.03;0.60;;;;;;;10.47;100.00;95454.88;4993079;28;101900;-61
2023/04/24 00:48:51;;;;;;;0.90;0.73;;;;;;;10.43;100.00;95457.28;4989066;28;104027;-61
2023/04/24 00:51:18;;;;;;;0.93;0.93;;;;;;;10.51;100.00;95446.06;4990770;28;101818;-61
2023/04/24 00:53:45;;;;;;;0.90;0.90;;;;;;;10.55;100.00;95438.34;4990940;28;101703;-61
2023/04/24 00:56:12;;;;;;;1.03;1.03;;;;;;;10.55;100.00;95439.16;4988847;28;104701;-61
2023/04/24 00:58:39;;;;;;;1.17;1.07;;;;;;;10.56;100.00;95432.75;4989247;28;101981;-61
2023/04/24 01:01:07;;;;;;;1.20;1.10;;;;;;;10.57;100.00;95441.53;4989467;28;105283;-61
2023/04/24 01:03:37;;;;;;;1.17;0.97;;;;;;;10.61;100.00;95435.41;4990164;28;102553;-61
2023/04/24 01:06:06;;;;;;;0.70;0.70;;;;;;;10.66;100.00;95440.69;4990936;28;101775;-61
2023/04/24 01:08:33;;;;;;;0.70;0.70;;;;;;;10.68;100.00;95443.84;4993661;28;101699;-61
2023/04/24 01:11:04;;;;;;;0.80;0.80;;;;;;;10.62;100.00;95439.63;4990463;28;102046;-61
2023/04/24 01:13:32;;;;;;;0.70;0.70;;;;;;;10.53;100.00;95435.94;4990883;28;102288;-61
2023/04/24 01:16:00;;;;;;;0.80;0.80;;;;;;;10.55;100.00;95441.81;4988682;28;105855;-61
2023/04/24 01:18:28;;;;;;;0.90;0.90;;;;;;;10.61;100.00;95443.38;4989294;28;102038;-61
2023/04/24 01:20:59;;;;;;;0.80;0.80;;;;;;;10.63;100.00;95445.75;4988914;28;104209;-61
2023/04/24 01:23:28;;;;;;;1.10;1.00;;;;;;;10.65;100.00;95441.78;4987870;28;105292;-61
2023/04/24 01:25:55;;;;;;;0.90;0.90;;;;;;;10.60;100.00;95451.63;4990360;28;101994;-61
2023/04/24 01:28:22;;;;;;;1.57;1.00;;;;;;;10.54;100.00;95447.38;4990566;28;101724;-61
2023/04/24 01:30:50;;;;;;;1.00;0.90;;;;;;;10.56;100.00;95448.72;4991591;28;105451;-61
2023/04/24 01:33:17;;;;;;;0.90;0.90;;;;;;;10.56;100.00;95450.56;4989012;28;105429;-61
2023/04/24 01:35:44;;;;;;;0.70;0.70;;;;;;;10.52;100.00;95446.88;4988191;28;105533;-61
2023/04/24 01:38:11;;;;;;;1.13;0.80;;;;;;;10.47;100.00;95437.03;4989070;28;102236;-61
2023/04/24 01:40:40;;;;;;;1.10;1.00;;;;;;;10.48;100.00;95435.97;4988823;28;105483;-61
2023/04/24 01:43:07;;;;;;;1.40;0.97;;;;;;;10.49;100.00;95439.44;4987792;28;105294;-61
2023/04/24 01:45:34;;;;;;;0.80;0.80;;;;;;;10.49;100.00;95440.25;4988412;28;101878;-61
2023/04/24 01:48:05;;;;;;;0.70;0.70;;;;;;;10.37;100.00;95447.72;4988848;28;104169;-61
2023/04/24 01:50:31;;;;;;;0.80;0.80;;;;;;;10.42;100.00;95447.69;4988214;28;105931;-61
2023/04/24 01:52:59;;;;;;;0.77;0.77;;;;;;;10.34;100.00;95448.25;4991705;28;101822;-61
2023/04/24 01:55:26;;;;;;;0.77;0.77;;;;;;;10.45;100.00;95449.00;4988066;28;105845;-61
2023/04/24 01:57:57;;;;;;;0.80;0.80;;;;;;;10.37;100.00;95433.63;4988621;28;101912;-61
2023/04/24 02:00:25;;;;;;;0.90;0.73;;;;;;;10.40;100.00;95435.75;4988620;28;105749;-61
2023/04/24 02:02:53;;;;;;;0.70;0.70;;;;;;;10.38;100.00;95438.69;4989097;28;102669;-61
2023/04/24 02:05:20;;;;;;;0.70;0.70;;;;;;;10.31;100.00;95437.38;4988564;28;102200;-62
2023/04/24 02:07:47;;;;;;;0.80;0.80;;;;;;;10.24;100.00;95435.00;4988361;28;105522;-61
2023/04/24 02:10:14;;;;;;;1.83;0.80;;;;;;;10.22;100.00;95426.53;4987883;28;105475;-61
2023/04/24 02:12:44;;;;;;;1.13;0.70;;;;;;;10.23;100.00;95436.09;4991702;28;101888;-61
2023/04/24 02:15:13;;;;;;;1.17;0.80;;;;;;;10.28;100.00;95432.59;4987890;28;105796;-61
2023/04/24 02:17:40;;;;;;;0.83;0.83;;;;;;;10.20;100.00;95441.16;4988449;28;101816;-61
2023/04/24 02:20:09;;;;;;;0.70;0.70;;;;;;;10.16;100.00;95430.28;4988331;28;105236;-61
2023/04/24 02:22:36;;;;;;;0.80;0.80;;;;;;;10.20;100.00;95427.88;4987274;28;106030;-61
2023/04/24 02:25:03;;;;;;;1.37;1.03;;;;;;;10.20;100.00;95436.59;4988197;28;102158;-61
2023/04/24 02:27:30;;;;;;;0.87;0.87;;;;;;;10.21;100.00;95426.78;4988318;28;105571;-61
2023/04/24 02:29:57;;;;;;;1.10;1.00;;;;;;;10.28;100.00;95432.59;4987498;28;105415;-61
2023/04/24 02:32:25;;;;;;;1.17;0.80;;;;;;;10.27;100.00;95431.00;4989667;28;102013;-61
2023/04/24 02:34:52;;;;;;;1.17;1.07;;;;;;;10.22;100.00;95431.03;4990880;28;105806;-61
2023/04/24 02:37:19;;;;;;;1.20;1.20;;;;;;;10.15;100.00;95438.50;4988049;28;101908;-61
2023/04/24 02:39:46;;;;;;;1.77;1.00;;;;;;;10.15;100.00;95436.63;4988134;28;105233;-61
2023/04/24 02:42:13;;;;;;;1.03;1.00;;;;;;;10.02;100.00;95439.03;4988917;28;103061;-61
2023/04/24 02:44:40;;;;;;;1.70;1.17;;;;;;;10.05;100.00;95430.56;4987977;28;101964;-61
2023/04/24 02:47:08;;;;;;;1.37;1.27;;;;;;;10.02;100.00;95433.72;4988004;28;105558;-61
2023/04/24 02:49:36;;;;;;;1.20;1.20;;;;;;;10.07;100.00;95433.72;4986888;28;106738;-61
2023/04/24 02:52:03;;;;;;;1.27;1.00;;;;;;;10.08;100.00;95440.66;4988089;28;101898;-61
2023/04/24 02:54:30;;;;;;;1.30;1.20;;;;;;;10.06;100.00;95440.91;4987968;28;105238;-61
2023/04/24 02:56:57;;;;;;;1.10;1.10;;;;;;;10.06;100.00;95435.59;4992912;28;105717;-61
2023/04/24 02:59:26;;;;;;;2.30;1.10;;;;;;;10.06;100.00;95438.25;4991342;28;104879;-61
2023/04/24 03:01:53;;;;;;;1.17;1.17;;;;;;;10.07;100.00;95437.19;4990660;28;105160;-61
2023/04/24 03:04:20;;;;;;;1.37;1.10;;;;;;;10.01;100.00;95442.75;4991099;28;101847;-61
2023/04/24 03:06:51;;;;;;;1.47;1.33;;;;;;;10.05;100.00;95443.84;4991250;28;105352;-61
2023/04/24 03:09:20;;;;;;;1.27;0.87;;;;;;;10.09;100.00;95443.03;4990288;28;104215;-61
2023/04/24 03:11:48;;;;;;;2.27;0.93;;;;;;;10.04;100.00;95434.28;4991371;28;101944;-61
2023/04/24 03:14:15;;;;;;;0.90;0.90;;;;;;;10.00;100.00;95435.84;4992545;28;102386;-61
2023/04/24 03:16:42;;;;;;;0.90;0.90;;;;;;;9.94;100.00;95431.63;4990425;28;105745;-61
2023/04/24 03:19:09;;;;;;;1.13;0.90;;;;;;;9.97;100.00;95433.75;4994138;28;101939;-61
2023/04/24 03:21:45;;;;;;;1.90;1.07;;;;;;;9.96;100.00;95440.09;4990315;28;103914;-61
2023/04/24 03:24:13;;;;;;;1.10;1.00;;;;;;;9.95;100.00;95434.00;4990448;28;101967;-59
2023/04/24 03:26:40;;;;;;;0.83;0.83;;;;;;;9.93;100.00;95440.66;4990893;28;105563;-59
2023/04/24 03:29:36;;;;;;;0.97;0.87;;;;;;;9.90;100.00;95438.53;4990192;28;103018;-59
2023/04/24 03:32:04;;;;;;;1.73;0.97;;;;;;;9.94;100.00;95439.56;4990586;28;101971;-59
2023/04/24 03:34:31;;;;;;;1.90;1.43;;;;;;;9.89;100.00;95439.59;4990627;28;104930;-59
2023/04/24 03:36:59;;;;;;;1.00;0.90;;;;;;;9.87;100.00;95447.03;4990063;28;105116;-59
2023/04/24 03:39:27;;;;;;;1.10;1.10;;;;;;;9.92;100.00;95457.66;4991025;28;101919;-59
2023/04/24 03:41:56;;;;;;;0.80;0.80;;;;;;;9.93;100.00;95460.00;4993502;28;105739;-59
2023/04/24 03:44:30;;;;;;;1.77;0.90;;;;;;;9.95;100.00;95467.72;4990736;28;102159;-59
2023/04/24 03:46:59;;;;;;;1.80;1.43;;;;;;;9.91;100.00;95462.16;4990677;28;104517;-59
2023/04/24 03:49:26;;;;;;;1.63;1.00;;;;;;;9.89;100.00;95476.75;4989858;28;105184;-59
2023/04/24 03:51:53;;;;;;;0.80;0.80;;;;;;;9.88;100.00;95477.84;4990342;28;101914;-59
2023/04/24 03:54:25;;;;;;;1.20;1.00;;;;;;;9.84;100.00;95474.91;4990307;28;104957;-59
2023/04/24 03:56:55;;;;;;;1.00;0.90;;;;;;;9.81;100.00;95464.03;4989813;28;105491;-59
2023/04/24 03:59:22;;;;;;;1.00;0.90;;;;;;;9.79;100.00;95472.28;4990579;28;101926;-59
2023/04/24 04:02:00;;;;;;;0.93;0.80;;;;;;;9.75;100.00;95471.19;4990173;28;104004;-59
2023/04/24 04:04:27;;;;;;;0.70;0.70;;;;;;;9.73;100.00;95475.19;4992885;28;101939;-59
2023/04/24 04:06:54;;;;;;;0.77;0.70;;;;;;;9.67;100.00;95469.09;4990144;28;105184;-59
2023/04/24 04:09:26;;;;;;;1.37;0.90;;;;;;;9.75;100.00;95476.50;4989592;28;106336;-59
2023/04/24 04:11:55;;;;;;;0.80;0.80;;;;;;;9.76;100.00;95477.31;4989974;28;101911;-59
2023/04/24 04:14:22;;;;;;;1.70;0.80;;;;;;;9.73;100.00;95476.00;4990026;28;104895;-59
2023/04/24 04:16:49;;;;;;;0.57;0.57;;;;;;;9.75;100.00;95470.44;4989733;28;105265;-59
2023/04/24 04:19:16;;;;;;;0.60;0.60;;;;;;;9.71;100.00;95477.31;4990093;28;101936;-59
2023/04/24 04:21:45;;;;;;;1.97;0.83;;;;;;;9.63;100.00;95477.84;4990232;28;104911;-59
2023/04/24 04:24:26;;;;;;;0.80;0.80;;;;;;;9.63;100.00;95481.31;4992214;28;105477;-59
2023/04/24 04:26:56;;;;;;;1.20;1.10;;;;;;;9.65;100.00;95483.69;4989840;28;104946;-59
2023/04/24 04:29:31;;;;;;;1.27;0.70;;;;;;;9.60;100.00;95489.00;4989370;28;105391;-59
2023/04/24 04:31:59;;;;;;;1.47;0.90;;;;;;;9.61;100.00;95485.28;4989783;28;101887;-59
2023/04/24 04:34:27;;;;;;;1.30;1.00;;;;;;;9.61;100.00;95487.94;4989634;28;104653;-59
2023/04/24 04:36:54;;;;;;;0.87;0.80;;;;;;;9.64;100.00;95487.38;4989276;28;103661;-59
2023/04/24 04:39:36;;;;;;;0.70;0.70;;;;;;;9.60;100.00;95475.72;4989696;28;101960;-59
2023/04/24 04:42:09;;;;;;;0.63;0.63;;;;;;;9.55;100.00;95481.03;4989440;28;105545;-59
2023/04/24 04:44:40;;;;;;;5.50;3.10;;;;;;;9.61;100.00;95483.44;4989050;28;105166;-59
2023/04/24 04:47:10;;;;;;;2.07;1.80;;;;;;;9.57;100.00;95481.56;4992740;28;101760;-59
2023/04/24 04:49:38;;;;;;;2.63;1.70;;;;;;;9.64;100.00;95484.72;4989035;28;104179;-59
2023/04/24 04:52:08;;;;;;;2.17;1.60;;;;;;;9.61;100.00;95483.44;4989565;28;101765;-58
2023/04/24 04:54:35;;;;;;;1.93;1.83;;;;;;;9.67;100.00;95484.22;4989496;28;105228;-59
2023/04/24 04:57:02;;;;;;;2.33;1.60;;;;;;;9.72;100.00;95497.50;4988955;28;105341;-58
2023/04/24 04:59:30;;;;;;;1.20;1.10;;;;;;;9.69;100.00;95490.03;4989184;28;102363;-58
2023/04/24 05:02:03;;;;;;;1.10;1.00;;;;;;;9.76;100.00;95490.59;4989268;28;104956;-58
2023/04/24 05:04:31;;;;;;;1.73;1.00;;;;;;;9.76;100.00;95490.59;4988555;28;105190;-58
2023/04/24 05:06:58;;;;;;;1.00;1.00;;;;;;;9.77;100.00;95490.31;4990901;28;101676;-58
2023/04/24 05:09:29;;;;;;;1.43;1.20;;;;;;;9.81;100.00;95491.38;4992066;28;104685;-58
2023/04/24 05:12:01;;;;;;;1.23;1.13;;;;;;;9.89;100.00;95487.38;4989201;28;101839;-58
2023/04/24 05:14:33;;;;;;;1.30;1.20;;;;;;;9.73;100.00;95489.28;4989102;28;105163;-58
2023/04/24 05:17:00;;;;;;;1.90;1.80;;;;;;;9.82;100.00;95492.19;4988699;28;105046;-58
2023/04/24 05:19:27;;;;;;;1.60;1.50;;;;;;;9.79;100.00;95490.03;4988447;28;101908;-58
2023/04/24 05:21:54;;;;;;;2.90;1.30;;;;;;;9.80;100.00;95487.13;4988982;28;104924;-58
2023/04/24 05:24:22;;;;;;;1.30;1.30;;;;;;;9.83;100.00;95489.25;4987712;28;104161;-58
2023/04/24 05:27:24;;;;;;;2.07;1.10;;;;;;;9.69;100.00;95490.84;4990045;28;102971;-58
2023/04/24 05:29:53;;;;;;;2.03;1.93;;;;;;;9.86;100.00;95495.91;4988945;28;105391;-58
2023/04/24 05:32:20;;;;;;;1.17;1.17;;;;;;;9.87;100.00;95502.81;4991561;28;105786;-58
2023/04/24 05:34:47;;;;;;;1.07;0.87;;;;;;;9.74;100.00;95500.66;4988768;28;105888;-58
2023/04/24 05:37:14;;;;;;;1.03;0.77;;;;;;;9.71;100.00;95496.69;4988423;28;105093;-58
2023/04/24 05:39:42;;;;;;;1.07;0.80;;;;;;;9.76;100.00;95494.03;4988669;28;101890;-58
2023/04/24 05:42:09;;;;;;;0.57;0.57;;;;;;;9.65;100.00;95492.44;4988656;28;105746;-58
2023/04/24 05:44:36;;;;;;;0.70;0.60;;;;;;;9.56;100.00;95501.22;4988120;28;105522;-59
2023/04/24 05:47:05;;;;;;;0.70;0.70;;;;;;;9.52;100.00;95503.59;4988681;28;101850;-59
2023/04/24 05:49:32;;;;;;;0.97;0.67;;;;;;;9.45;100.00;95504.91;4988867;28;105129;-59
2023/04/24 05:51:59;;;;;;;0.80;0.80;;;;;;;9.54;100.00;95493.50;4987700;28;105151;-61
2023/04/24 05:54:32;;;;;;;0.90;0.90;;;;;;;9.62;100.00;95508.09;4994535;28;101986;-61
2023/04/24 05:56:59;;;;;;;0.73;0.73;;;;;;;9.64;100.00;95504.13;5004057;28;105700;-61
2023/04/24 05:59:37;;;;;;;2.23;1.00;;;;;;;9.68;100.00;95496.41;5008267;28;102078;-60
2023/04/24 06:02:10;;;;;;;0.80;0.80;;;;;;;9.70;100.00;95504.94;5008182;28;105416;-60
2023/04/24 06:04:38;;;;;;;0.50;0.50;;;;;;;9.63;100.00;95505.19;5000665;28;104327;-59
2023/04/24 06:07:06;;;;;;;0.80;0.80;;;;;;;9.64;100.00;95500.66;5020221;28;101742;-59
2023/04/24 06:09:33;;;;;;;0.97;0.60;;;;;;;9.67;100.00;95500.13;5018949;28;104707;-60
2023/04/24 06:12:00;;;;;;;0.77;0.70;;;;;;;9.80;100.00;95499.59;5007504;28;104226;-60
2023/04/24 06:14:40;;;;;;;0.77;0.77;;;;;;;9.82;100.00;95502.81;4996775;28;101768;-62
2023/04/24 06:17:18;;;;;;;0.50;0.50;;;;;;;9.90;100.00;95503.06;5008189;28;105176;-60
2023/04/24 06:19:46;;;;;;;0.60;0.60;;;;;;;9.98;100.00;95504.38;5008703;28;101975;-60
2023/04/24 06:22:14;;;;;;;0.50;0.50;;;;;;;10.02;100.00;95502.75;5008672;28;105631;-60
2023/04/24 06:24:42;;;;;;;0.40;0.40;;;;;;;9.90;100.00;95499.59;4999791;28;105646;-60
2023/04/24 06:27:09;;;;;;;2.83;0.60;;;;;;;9.88;100.00;95507.81;4996276;28;101959;-60
2023/04/24 06:29:37;;;;;;;0.47;0.47;;;;;;;9.92;100.00;95503.56;5010042;28;102556;-65
2023/04/24 06:32:04;;;;;;;0.60;0.50;;;;;;;9.96;100.00;95501.19;5011304;28;105403;-60
2023/04/24 06:34:42;;;;;;;0.47;0.47;;;;;;;9.98;100.00;95499.06;5015692;28;102086;-60
2023/04/24 06:37:09;;;;;;;0.60;0.60;;;;;;;9.95;100.00;95499.59;5032785;28;105105;-61
2023/04/24 06:39:38;;;;;;;0.60;0.60;;;;;;;10.15;100.00;95487.09;5014243;28;102021;-60
2023/04/24 06:42:08;;;;;;;0.63;0.63;;;;;;;10.33;100.00;95488.38;5025426;28;105042;-60
2023/04/24 06:44:45;;;;;;;0.80;0.50;;;;;;;10.40;100.00;95499.53;5024117;28;105243;-60
2023/04/24 06:47:13;;;;;;;0.97;0.50;;;;;;;10.29;100.00;95493.44;4999439;28;101970;-59
2023/04/24 06:49:41;;;;;;;0.77;0.60;;;;;;;10.29;100.00;95497.97;5018642;28;104756;-59
2023/04/24 06:52:09;;;;;;;1.50;0.60;;;;;;;10.25;100.00;95496.94;5022376;28;105700;-59
2023/04/24 06:54:43;;;;;;;0.60;0.60;;;;;;;10.45;100.00;95492.34;5009314;28;102179;-59
2023/04/24 06:57:10;;;;;;;0.50;0.50;;;;;;;10.54;100.00;95497.91;5015323;28;105473;-59
2023/04/24 06:59:37;;;;;;;0.83;0.50;;;;;;;10.54;100.00;95495.22;5022428;28;105364;-59
2023/04/24 07:02:03;;;;;;;1.60;0.57;;;;;;;10.56;100.00;95498.41;5022553;28;104741;-60
2023/04/24 07:04:36;;;;;;;7.70;5.57;;;;;;;10.49;100.00;95504.03;4994047;28;102667;-59
2023/04/24 07:07:06;;;;;;;9.03;6.70;;;;;;;10.63;100.00;95502.38;5010022;28;101798;-59
2023/04/24 07:09:35;;;;;;;5.17;4.57;;;;;;;10.75;100.00;95507.38;5013464;28;104841;-59
2023/04/24 07:12:01;;;;;;;2.57;1.70;;;;;;;10.71;100.00;95504.47;5023025;28;102529;-60
2023/04/24 07:14:42;;;;;;;2.17;2.07;;;;;;;10.80;100.00;95504.72;5015929;28;102038;-60
2023/04/24 07:17:09;;;;;;;7.73;5.00;;;;;;;11.01;100.00;95496.34;5016464;28;105601;-60
2023/04/24 07:19:36;;;;;;;24.17;14.73;;;;;;;10.96;100.00;95506.22;5011699;28;102611;-60
2023/04/24 07:22:04;;;;;;;4.57;2.17;;;;;;;10.79;100.00;95503.91;5022041;28;101936;-60
2023/04/24 07:24:32;;;;;;;30.60;18.47;;;;;;;10.85;100.00;95502.81;5009918;28;103792;-60
2023/04/24 07:26:59;;;;;;;1.30;1.03;;;;;;;10.97;100.00;95511.25;5026342;28;103140;-60
2023/04/24 07:29:26;;;;;;;2.43;2.00;;;;;;;10.96;100.00;95504.34;5011135;28;104887;-60
2023/04/24 07:31:53;;;;;;;33.53;19.83;;;;;;;11.03;100.00;95504.88;5024231;28;105196;-60
2023/04/24 07:34:25;;;;;;;10.50;5.90;;;;;;;10.92;100.00;95507.84;5010677;28;102199;-60
2023/04/24 07:36:52;;;;;;;15.13;8.00;;;;;;;10.92;100.00;95510.50;5027076;28;104893;-60
2023/04/24 07:39:20;;;;;;;19.87;17.77;;;;;;;10.97;100.00;95515.81;5029857;28;105483;-60
2023/04/24 07:41:47;;;;;;;7.47;6.77;;;;;;;11.00;100.00;95515.25;5026030;27;101915;-60
2023/04/24 07:44:15;;;;;;;1.60;1.50;;;;;;;11.13;100.00;95514.66;5013810;28;102301;-60
2023/04/24 07:46:42;;;;;;;2.37;2.03;;;;;;;11.22;100.00;95510.31;5013034;28;101863;-60
2023/04/24 07:49:09;;;;;;;1.20;1.20;;;;;;;11.29;100.00;95514.28;5012254;28;102577;-60
2023/04/24 07:51:38;;;;;;;1.70;1.60;;;;;;;11.24;100.00;95513.53;5011419;28;102600;-60
2023/04/24 07:54:10;;;;;;;5.67;5.17;;;;;;;11.32;100.00;95512.94;5021497;28;102018;-60
2023/04/24 07:56:38;;;;;;;1.17;0.63;;;;;;;11.25;100.00;95518.59;5012486;28;104836;-60
2023/04/24 07:59:05;;;;;;;5.57;5.03;;;;;;;11.28;100.00;95511.91;5022712;28;105459;-60
2023/04/24 08:01:32;;;;;;;5.70;4.60;;;;;;;11.33;100.00;95525.19;5010763;28;101986;-60
2023/04/24 08:04:00;;;;;;;3.77;3.40;;;;;;;11.32;100.00;95520.91;5018778;28;104851;-60
2023/04/24 08:06:30;;;;;;;6.80;3.53;;;;;;;11.32;100.00;95523.56;5007970;28;105911;-60
2023/04/24 08:08:56;;;;;;;5.53;4.50;;;;;;;11.47;100.00;95516.31;5010442;28;104758;-60
2023/04/24 08:11:23;;;;;;;18.00;12.23;;;;;;;11.40;100.00;95513.16;5020664;28;106661;-60
2023/04/24 08:13:54;;;;;;;2.87;1.90;;;;;;;11.47;100.00;95523.50;5030230;27;102183;-60
2023/04/24 08:16:21;;;;;;;2.67;2.37;;;;;;;11.56;100.00;95527.16;5022224;28;105366;-60
2023/04/24 08:18:48;;;;;;;8.57;7.00;;;;;;;11.56;100.00;95529.84;5009712;28;104334;-60
2023/04/24 08:21:16;;;;;;;11.10;8.30;;;;;;;11.68;100.00;95535.63;5010277;28;102050;-60
2023/04/24 08:23:44;;;;;;;17.83;14.13;;;;;;;11.65;100.00;95536.97;5009593;28;103911;-60
2023/04/24 08:26:11;;;;;;;1.90;1.70;;;;;;;11.66;100.00;95535.91;5016761;28;102994;-61
2023/04/24 08:28:38;;;;;;;20.97;16.93;;;;;;;11.58;100.00;95533.81;5014232;28;102475;-61
2023/04/24 08:31:07;;;;;;;1.43;1.30;;;;;;;11.57;100.00;95536.75;5030211;27;102783;-61
2023/04/24 08:34:06;;;;;;;11.53;10.17;;;;;;;11.60;100.00;95542.34;5028982;27;101907;-61
2023/04/24 08:36:33;;;;;;;5.10;4.63;;;;;;;11.60;100.00;95544.19;5010543;28;102515;-61
2023/04/24 08:39:00;;;;;;;4.47;3.57;;;;;;;11.52;100.00;95540.25;5025488;28;105878;-61
2023/04/24 08:41:28;;;;;;;0.93;0.90;;;;;;;11.47;100.00;95550.91;5030209;28;101941;-60
2023/04/24 08:43:58;;;;;;;1.33;0.60;;;;;;;11.46;100.00;95556.50;5012425;27;102592;-60
2023/04/24 08:46:27;;;;;;;0.97;0.80;;;;;;;11.48;100.00;95559.69;5009303;28;104917;-61
2023/04/24 08:48:54;;;;;;;1.03;0.80;;;;;;;11.38;100.00;95571.19;5033146;28;102087;-60
2023/04/24 08:51:22;;;;;;;0.50;0.50;;;;;;;11.45;100.00;95571.69;5030467;27;102663;-60
2023/04/24 08:54:28;;;;;;;0.83;0.47;;;;;;;11.41;100.00;95567.19;5029632;27;102247;-60
2023/04/24 08:57:00;;;;;;;0.67;0.33;;;;;;;11.39;100.00;95561.34;5018233;28;102697;-60
2023/04/24 08:59:28;;;;;;;0.40;0.40;;;;;;;11.32;100.00;95576.81;5012935;28;104353;-60
2023/04/24 09:01:57;;;;;;;0.40;0.40;;;;;;;11.24;100.00;95569.41;5029446;28;101877;-60
2023/04/24 09:04:31;;;;;;;0.50;0.50;;;;;;;11.30;100.00;95568.31;5029522;27;102366;-60
2023/04/24 09:06:59;;;;;;;0.50;0.50;;;;;;;11.27;100.00;95574.97;5009054;28;105325;-60
2023/04/24 09:09:26;;;;;;;0.43;0.43;;;;;;;11.25;100.00;95571.00;5009583;28;102291;-63
2023/04/24 09:11:55;;;;;;;0.70;0.40;;;;;;;11.31;100.00;95578.69;5008781;28;105187;-59
2023/04/24 09:14:28;;;;;;;1.60;0.40;;;;;;;11.40;100.00;95578.91;4991711;28;102410;-59
2023/04/24 09:16:55;;;;;;;0.73;0.50;;;;;;;11.39;100.00;95572.78;5021138;28;104897;-60
2023/04/24 09:19:23;;;;;;;0.50;0.50;;;;;;;11.48;100.00;95578.31;5027835;28;105640;-59
2023/04/24 09:21:50;;;;;;;0.50;0.50;;;;;;;11.51;100.00;95575.91;5029342;28;102142;-59
2023/04/24 09:24:22;;;;;;;0.70;0.60;;;;;;;11.57;100.00;95580.16;5028505;28;103547;-59
2023/04/24 09:26:57;;;;;;;0.50;0.50;;;;;;;11.66;100.00;95577.72;5009950;28;103556;-60
2023/04/24 09:29:24;;;;;;;0.60;0.50;;;;;;;11.75;100.00;95581.38;5010183;28;102229;-60
2023/04/24 09:31:51;;;;;;;1.50;0.60;;;;;;;11.79;100.00;95585.09;5029520;28;105134;-59
2023/04/24 09:34:33;;;;;;;0.73;0.63;;;;;;;11.92;100.00;95593.25;5031771;28;105113;-60
2023/04/24 09:37:00;;;;;;;0.57;0.57;;;;;;;11.90;100.00;95584.75;5027433;28;104723;-60
2023/04/24 09:39:27;;;;;;;1.43;0.47;;;;;;;11.87;100.00;95595.13;5027872;28;105136;-60
2023/04/24 09:41:56;;;;;;;0.70;0.70;;;;;;;11.71;100.00;95596.31;5029478;28;101907;-60
2023/04/24 09:44:35;;;;;;;0.80;0.80;;;;;;;11.63;100.00;95599.56;5029366;27;102342;-60
2023/04/24 09:47:02;;;;;;;0.60;0.60;;;;;;;11.61;100.00;95591.06;5009943;28;102873;-60
2023/04/24 09:49:33;;;;;;;0.90;0.63;;;;;;;11.63;100.00;95604.91;5009016;28;101905;-60
2023/04/24 09:52:06;;;;;;;1.17;0.70;;;;;;;11.48;100.00;95603.09;5009029;28;104886;-60
2023/04/24 09:54:46;;;;;;;0.80;0.80;;;;;;;11.49;100.00;95598.53;5011489;28;105540;-60
2023/04/24 09:57:15;;;;;;;0.50;0.50;;;;;;;11.47;100.00;95606.03;4992423;28;101849;-60
2023/04/24 09:59:43;;;;;;;2.10;0.87;;;;;;;11.41;100.00;95591.94;4996125;28;102793;-59
2023/04/24 10:02:18;;;;;;;0.73;0.63;;;;;;;11.54;100.00;95595.84;5021028;28;101984;-59
2023/04/24 10:04:56;;;;;;;0.70;0.70;;;;;;;11.58;100.00;95594.25;5009152;28;105560;-59
2023/04/24 10:07:26;;;;;;;2.33;0.80;;;;;;;11.59;100.00;95604.66;5011725;28;105735;-59
2023/04/24 10:09:53;;;;;;;1.67;0.70;;;;;;;11.72;100.00;95624.56;5012518;28;101868;-59
2023/04/24 10:12:20;;;;;;;0.80;0.80;;;;;;;11.82;100.00;95603.19;5012065;28;105505;-59
2023/04/24 10:14:54;;;;;;;1.13;0.90;;;;;;;11.89;100.00;95609.00;5012531;28;105737;-59
2023/04/24 10:17:23;;;;;;;0.87;0.87;;;;;;;11.84;100.00;95593.03;5012290;28;102008;-59
2023/04/24 10:19:50;;;;;;;0.80;0.80;;;;;;;12.04;100.00;95600.91;5015178;28;104734;-59
2023/04/24 10:22:19;;;;;;;0.80;0.80;;;;;;;12.02;100.00;95597.69;5012192;28;101909;-63
2023/04/24 10:24:49;;;;;;;2.10;0.90;;;;;;;12.13;100.00;95591.22;5019672;28;105054;-59
2023/04/24 10:27:17;;;;;;;0.90;0.90;;;;;;;12.03;100.00;95593.97;5018058;28;105654;-59
2023/04/24 10:29:44;;;;;;;1.03;0.70;;;;;;;11.89;100.00;95598.34;5031896;28;102051;-59
2023/04/24 10:32:11;;;;;;;1.07;0.80;;;;;;;11.93;100.00;95592.16;5033584;27;102638;-59
2023/04/24 10:34:53;;;;;;;0.70;0.70;;;;;;;12.18;100.00;95585.84;5023346;27;103127;-59
2023/04/24 10:37:20;;;;;;;2.73;0.90;;;;;;;12.15;100.00;95587.19;5008461;28;102209;-59
2023/04/24 10:39:51;;;;;;;1.00;0.77;;;;;;;12.20;100.00;95597.03;5032865;28;102530;-59
2023/04/24 10:42:18;;;;;;;1.57;1.47;;;;;;;12.46;100.00;95596.53;5033260;28;103659;-59
2023/04/24 10:44:57;;;;;;;4.03;3.00;;;;;;;12.84;100.00;95589.47;5030123;28;103677;-59
2023/04/24 10:47:25;;;;;;;1.77;1.63;;;;;;;12.95;100.00;95590.94;4992749;28;101744;-59
2023/04/24 10:49:52;;;;;;;1.10;1.03;;;;;;;13.25;100.00;95590.66;5009559;28;102040;-59
2023/04/24 10:52:20;;;;;;;1.13;0.70;;;;;;;13.30;100.00;95587.91;5031562;28;105652;-59
2023/04/24 10:54:49;;;;;;;1.70;0.83;;;;;;;13.28;100.00;95582.84;5029514;28;105604;-59
2023/04/24 10:57:36;;;;;;;0.80;0.70;;;;;;;13.36;100.00;95581.44;5008542;28;102137;-59
2023/04/24 11:00:19;;;;;;;2.70;1.17;;;;;;;13.27;100.00;95583.13;5031163;28;105598;-59
2023/04/24 11:02:50;;;;;;;2.33;1.70;;;;;;;13.05;100.00;95590.88;5032991;28;105997;-59
2023/04/24 11:05:22;;;;;;;0.80;0.80;;;;;;;12.86;100.00;95579.34;5027125;28;105068;-59
2023/04/24 11:08:11;;;;;;;0.70;0.70;;;;;;;13.07;100.00;95572.69;5011027;28;104990;-59
2023/04/24 11:10:45;;;;;;;1.30;1.30;;;;;;;13.33;100.00;95585.47;5011527;28;101962;-60
2023/04/24 11:13:23;;;;;;;1.40;0.80;;;;;;;13.19;100.00;95583.78;5013875;28;102511;-61
2023/04/24 11:16:14;;;;;;;0.70;0.70;;;;;;;13.26;100.00;95576.22;5005794;27;105284;-60
2023/04/24 11:18:45;;;;;;;0.83;0.70;;;;;;;13.16;100.00;95587.00;5032834;28;102047;-61
2023/04/24 11:21:13;;;;;;;0.70;0.70;;;;;;;13.37;100.00;95580.34;5022260;28;103018;-59
2023/04/24 11:23:40;;;;;;;2.10;0.80;;;;;;;13.37;100.00;95583.81;5010401;28;103895;-60
2023/04/24 11:26:18;;;;;;;1.37;0.80;;;;;;;13.48;100.00;95574.59;5020979;28;103173;-60
2023/04/24 11:28:50;;;;;;;0.63;0.63;;;;;;;13.52;100.00;95574.81;5012133;28;102652;-67
2023/04/24 11:31:37;;;;;;;0.93;0.80;;;;;;;13.40;100.00;95582.44;5012045;28;101811;-63